Time;durP1;ratioP1;P1;durP2;ratioP2;P2;SDS_P1;SDS_P2;PMS_P1;PMS_P2;Temp;Humidity;BMP_temperature;BMP_pressure;BME280_temperature;BME280_humidity;BME280_pressure;Samples;Min_cycle;Max_cycle;Signal;HPM_P1;HPM_P2
2023/02/13 00:00:21;;;;;;;4.50;2.00;;;;;;;4.11;44.40;102268.47;107263;1288;1002324;-63
2023/02/13 00:02:47;;;;;;;3.60;1.50;;;;;;;4.13;44.21;102272.38;108023;1289;21989;-60
2023/02/13 00:05:13;;;;;;;4.40;1.30;;;;;;;4.12;44.21;102270.39;107946;1288;21991;-60
2023/02/13 00:07:39;;;;;;;5.20;1.60;;;;;;;4.07;44.35;102270.02;107965;1289;21992;-62
2023/02/13 00:10:09;;;;;;;3.40;1.40;;;;;;;4.14;44.44;102269.98;108005;1289;21981;-60
2023/02/13 00:12:39;;;;;;;4.90;1.90;;;;;;;4.20;44.24;102270.02;107990;1289;21991;-60
2023/02/13 00:15:09;;;;;;;;;;;;;;;4.19;44.14;102269.65;107958;1289;21971;-64
2023/02/13 00:17:35;;;;;;;4.40;1.80;;;;;;;4.14;44.08;102270.17;107970;1288;22006;-64
2023/02/13 00:20:05;;;;;;;5.60;1.70;;;;;;;4.17;44.13;102262.63;107980;1289;21989;-61
2023/02/13 00:22:35;;;;;;;7.90;1.80;;;;;;;4.18;44.16;102267.55;108020;1288;21989;-64
2023/02/13 00:25:02;;;;;;;;;;;;;;;4.18;43.96;102263.35;107995;1287;21977;-60
2023/02/13 00:27:28;;;;;;;3.90;1.80;;;;;;;4.20;43.99;102267.42;107986;1289;22011;-64
2023/02/13 00:29:54;;;;;;;3.00;1.40;;;;;;;4.19;43.87;102271.41;107959;1289;21995;-64
2023/02/13 00:32:19;;;;;;;2.60;1.30;;;;;;;4.16;43.79;102268.31;107977;1289;21972;-60
2023/02/13 00:34:45;;;;;;;3.70;1.60;;;;;;;4.14;43.99;102262.50;108039;1288;21998;-60
2023/02/13 00:37:11;;;;;;;3.40;1.40;;;;;;;4.12;43.93;102266.91;107995;1289;22014;-65
2023/02/13 00:39:39;;;;;;;4.80;1.70;;;;;;;4.12;43.82;102265.02;107991;1289;21993;-63
2023/02/13 00:42:05;;;;;;;4.10;1.60;;;;;;;4.06;43.84;102264.23;107805;1289;21993;-62
2023/02/13 00:44:30;;;;;;;4.30;1.60;;;;;;;4.02;43.82;102258.16;107959;1289;21992;-64
2023/02/13 00:46:56;;;;;;;5.20;1.90;;;;;;;4.01;43.96;102253.41;108003;1289;22071;-60
2023/02/13 00:49:23;;;;;;;3.60;1.20;;;;;;;3.97;44.02;102252.00;107971;1289;22000;-64
2023/02/13 00:51:49;;;;;;;5.50;2.10;;;;;;;3.94;43.83;102250.50;107986;1289;21998;-64
2023/02/13 00:54:15;;;;;;;4.60;1.90;;;;;;;3.92;43.82;102252.13;107928;1289;22000;-63
2023/02/13 00:57:00;;;;;;;7.90;2.30;;;;;;;3.90;44.08;102252.04;107952;1275;23644;-64
2023/02/13 00:59:26;;;;;;;4.50;2.00;;;;;;;3.88;43.92;102253.00;107925;1284;21997;-60
2023/02/13 01:01:51;;;;;;;3.40;1.70;;;;;;;3.85;43.93;102252.52;107988;1289;21987;-64
2023/02/13 01:04:17;;;;;;;4.40;1.70;;;;;;;3.83;43.97;102247.06;107354;1288;1003213;-60
2023/02/13 01:06:43;;;;;;;5.50;2.70;;;;;;;3.82;43.91;102249.94;108031;1289;21952;-62
2023/02/13 01:09:09;;;;;;;7.50;3.00;;;;;;;3.78;43.74;102250.10;107986;1289;21991;-64
2023/02/13 01:11:34;;;;;;;6.10;1.90;;;;;;;3.70;43.80;102251.84;107861;1285;21994;-64
2023/02/13 01:14:00;;;;;;;5.10;1.70;;;;;;;3.62;43.81;102259.27;107317;1289;1002334;-60
2023/02/13 01:16:30;;;;;;;4.60;1.40;;;;;;;3.55;43.84;102268.69;107289;1289;1003230;-64
2023/02/13 01:18:56;;;;;;;3.70;1.50;;;;;;;3.45;44.17;102273.44;107294;1289;1003022;-60
2023/02/13 01:21:23;;;;;;;5.90;1.80;;;;;;;3.42;44.17;102273.13;107309;1289;1003203;-64
2023/02/13 01:23:52;;;;;;;3.90;1.40;;;;;;;3.36;44.20;102275.11;107961;1288;22470;-60
2023/02/13 01:26:21;;;;;;;6.70;1.70;;;;;;;3.31;44.17;102280.60;107940;1289;22016;-61
2023/02/13 01:28:47;;;;;;;5.60;1.60;;;;;;;3.28;44.32;102282.14;108055;1289;22025;-63
2023/02/13 01:31:16;;;;;;;6.10;1.70;;;;;;;3.22;44.51;102279.98;107988;1289;21989;-63
2023/02/13 01:33:43;;;;;;;6.70;1.80;;;;;;;3.22;44.53;102282.20;108034;1289;22086;-64
2023/02/13 01:36:10;;;;;;;5.30;1.70;;;;;;;3.21;44.57;102279.58;108057;1289;22011;-60
2023/02/13 01:38:37;;;;;;;4.80;1.70;;;;;;;3.20;44.63;102282.30;107305;1289;1002351;-64
2023/02/13 01:41:03;;;;;;;3.20;1.70;;;;;;;3.21;44.56;102281.16;107258;1289;1003014;-60
2023/02/13 01:43:48;;;;;;;4.70;1.90;;;;;;;3.22;44.46;102283.77;108073;1289;21993;-60
2023/02/13 01:46:17;;;;;;;4.50;1.80;;;;;;;3.22;44.51;102290.03;108017;1289;21990;-60
2023/02/13 01:48:43;;;;;;;4.10;2.10;;;;;;;3.22;44.44;102298.55;107218;1289;1003164;-61
2023/02/13 01:51:13;;;;;;;5.00;2.00;;;;;;;3.20;44.60;102301.24;107898;1290;22025;-64
2023/02/13 01:54:02;;;;;;;4.60;1.70;;;;;;;3.20;44.60;102296.70;107941;1290;24389;-64
2023/02/13 01:56:28;;;;;;;5.00;1.90;;;;;;;3.20;44.41;102292.20;108021;1275;23828;-64
2023/02/13 01:58:56;;;;;;;4.90;1.70;;;;;;;3.22;44.40;102295.05;107933;1289;21998;-63
2023/02/13 02:01:26;;;;;;;4.40;1.60;;;;;;;3.22;44.34;102294.55;107958;1288;21990;-64
2023/02/13 02:03:58;;;;;;;4.60;1.50;;;;;;;3.21;44.27;102284.80;107832;1289;21999;-64
2023/02/13 02:06:27;;;;;;;7.20;1.80;;;;;;;3.17;44.24;102282.52;108143;1289;22001;-60
2023/02/13 02:08:57;;;;;;;5.00;2.40;;;;;;;3.14;44.21;102281.16;108123;1288;23055;-63
2023/02/13 02:11:36;;;;;;;6.30;2.20;;;;;;;3.11;44.16;102280.86;108106;1283;22003;-63
2023/02/13 02:14:07;;;;;;;5.90;2.00;;;;;;;3.09;44.23;102277.63;107919;1289;21994;-60
2023/02/13 02:16:33;;;;;;;6.60;2.00;;;;;;;3.07;44.22;102279.24;107871;1289;22005;-65
2023/02/13 02:19:01;;;;;;;5.10;1.90;;;;;;;3.03;44.22;102277.48;107142;1289;1003048;-60
2023/02/13 02:22:22;;;;;;;4.90;2.10;;;;;;;2.94;44.19;102281.22;107838;1286;22002;-64
2023/02/13 02:25:17;;;;;;;5.70;2.20;;;;;;;2.84;44.31;102285.08;107894;1289;22000;-64
2023/02/13 02:27:58;;;;;;;4.80;2.30;;;;;;;2.74;44.40;102282.11;107837;1289;22032;-64
2023/02/13 02:30:39;;;;;;;4.90;1.80;;;;;;;2.69;44.31;102279.95;107922;1289;21988;-65
2023/02/13 02:33:14;;;;;;;6.80;2.20;;;;;;;2.69;44.52;102281.89;107955;1288;22027;-64
2023/02/13 02:35:59;;;;;;;6.60;2.50;;;;;;;2.70;44.49;102286.98;108034;1288;21991;-60
2023/02/13 02:38:48;;;;;;;3.70;2.00;;;;;;;2.72;44.52;102289.82;108001;1288;21998;-63
2023/02/13 02:41:40;;;;;;;5.20;2.20;;;;;;;2.69;44.53;102286.94;107325;1283;1002974;-60
2023/02/13 02:44:32;;;;;;;5.00;2.00;;;;;;;2.67;44.54;102286.16;108044;1289;22009;-64
2023/02/13 02:50:11;;;;;;;6.20;1.70;;;;;;;2.61;44.84;102289.09;107807;1289;22002;-64
2023/02/13 02:52:42;;;;;;;5.30;1.60;;;;;;;2.61;44.83;102282.70;107956;1288;21994;-63
2023/02/13 02:55:26;;;;;;;5.50;2.00;;;;;;;2.64;44.85;102279.73;108005;1288;22016;-60
2023/02/13 03:06:55;;;;;;;5.10;2.00;;;;;;;2.87;45.18;102269.96;107721;1289;21997;-64
2023/02/13 03:15:08;;;;;;;3.80;2.10;;;;;;;2.93;45.15;102264.36;107862;1288;21992;-60
2023/02/13 03:23:24;;;;;;;6.70;3.40;;;;;;;2.87;45.28;102266.82;107876;1288;22241;-61
2023/02/13 03:26:11;;;;;;;4.60;2.20;;;;;;;2.82;45.36;102265.19;107857;1288;22177;-61
2023/02/13 03:31:52;;;;;;;5.20;2.10;;;;;;;2.79;45.47;102264.69;107946;1286;22015;-63
2023/02/13 03:34:22;;;;;;;;;;;;;;;2.79;45.80;102266.45;107886;1288;22039;-60
2023/02/13 03:39:53;;;;;;;4.20;2.00;;;;;;;2.84;45.82;102271.70;107958;1288;22011;-60
2023/02/13 03:42:22;;;;;;;4.70;2.10;;;;;;;2.83;45.89;102267.49;107209;1288;1002199;-60
2023/02/13 03:45:51;;;;;;;7.30;2.90;;;;;;;2.79;46.16;102264.00;107919;1288;21995;-64
2023/02/13 03:47:38;;;;;;;4.30;2.30;;;;;;;2.77;46.17;102264.25;108012;1288;21973;-60
2023/02/13 03:50:06;;;;;;;4.70;2.40;;;;;;;2.75;46.12;102260.52;108014;1288;24107;-64
2023/02/13 03:52:36;;;;;;;4.80;1.80;;;;;;;2.77;46.20;102255.91;108061;1276;23688;-64
2023/02/13 04:00:42;;;;;;;6.60;1.90;;;;;;;2.89;46.11;102257.58;107787;1288;21992;-60
2023/02/13 04:03:22;;;;;;;4.40;1.90;;;;;;;2.91;45.97;102256.80;107896;1286;21989;-64
2023/02/13 04:05:51;;;;;;;5.40;2.50;;;;;;;2.90;45.91;102257.06;107894;1288;22047;-64
2023/02/13 04:08:16;;;;;;;7.90;2.50;;;;;;;2.86;45.98;102263.11;107174;1288;1003195;-61
2023/02/13 04:10:53;;;;;;;5.60;2.20;;;;;;;2.81;45.95;102260.63;106963;1287;1002638;-61
2023/02/13 04:13:33;;;;;;;8.40;2.20;;;;;;;2.75;46.07;102259.83;107919;1288;21992;-64
2023/02/13 04:16:07;;;;;;;7.20;2.40;;;;;;;2.72;45.99;102259.82;107947;1288;22004;-61
2023/02/13 04:18:33;;;;;;;7.60;2.40;;;;;;;2.70;45.94;102258.00;107933;1288;21993;-60
2023/02/13 04:21:05;;;;;;;8.70;2.80;;;;;;;2.69;46.10;102261.08;107769;1288;22455;-61
2023/02/13 04:23:32;;;;;;;5.20;2.40;;;;;;;2.71;46.11;102261.88;107954;1288;21996;-61
2023/02/13 04:25:59;;;;;;;7.80;2.80;;;;;;;2.73;46.20;102268.05;107888;1288;21996;-61
2023/02/13 04:28:25;;;;;;;6.60;2.30;;;;;;;2.75;46.17;102270.77;107929;1288;21997;-61
2023/02/13 04:30:51;;;;;;;5.20;2.60;;;;;;;2.78;46.11;102275.42;107923;1288;22003;-60
2023/02/13 04:33:17;;;;;;;5.70;2.50;;;;;;;2.83;46.28;102279.13;107932;1288;21990;-62
2023/02/13 04:35:43;;;;;;;6.10;2.20;;;;;;;2.83;46.27;102275.33;107945;1288;21999;-61
2023/02/13 04:38:09;;;;;;;4.80;2.30;;;;;;;2.85;46.09;102267.42;107957;1286;21993;-65
2023/02/13 04:40:35;;;;;;;6.60;2.60;;;;;;;2.86;46.11;102271.13;107953;1288;21993;-61
2023/02/13 04:43:00;;;;;;;6.30;2.40;;;;;;;2.85;46.18;102273.16;107941;1288;21996;-64
2023/02/13 04:45:26;;;;;;;5.00;2.40;;;;;;;2.84;46.26;102274.66;108025;1288;21993;-64
2023/02/13 04:47:53;;;;;;;8.30;2.80;;;;;;;2.82;46.25;102278.20;108017;1276;21992;-64
2023/02/13 04:50:20;;;;;;;6.40;3.00;;;;;;;2.78;46.18;102283.53;108036;1288;22744;-63
2023/02/13 04:52:51;;;;;;;5.90;2.00;;;;;;;2.74;46.02;102282.31;108099;1288;21988;-61
2023/02/13 04:55:17;;;;;;;5.40;2.20;;;;;;;2.71;46.24;102283.35;107891;1288;23064;-63
2023/02/13 04:57:44;;;;;;;7.40;2.90;;;;;;;2.66;46.27;102282.61;107795;1289;22006;-64
2023/02/13 05:00:11;;;;;;;4.80;2.60;;;;;;;2.63;46.19;102285.05;107840;1288;23722;-64
2023/02/13 05:02:36;;;;;;;7.20;2.10;;;;;;;2.60;46.12;102287.50;108085;1288;21991;-61
2023/02/13 05:05:03;;;;;;;5.00;1.70;;;;;;;2.52;46.12;102294.20;107393;1288;1002698;-61
2023/02/13 05:07:29;;;;;;;4.40;2.40;;;;;;;2.45;46.30;102297.13;108083;1288;22461;-62
2023/02/13 05:09:54;;;;;;;5.60;2.60;;;;;;;2.40;46.31;102302.24;108067;1288;21990;-64
2023/02/13 05:12:20;;;;;;;5.20;2.30;;;;;;;2.34;46.42;102307.65;108080;1288;21994;-60
2023/02/13 05:14:47;;;;;;;5.80;2.20;;;;;;;2.29;46.39;102306.36;108076;1288;22005;-60
2023/02/13 05:17:13;;;;;;;7.10;2.10;;;;;;;2.29;46.28;102307.58;108039;1288;22027;-60
2023/02/13 05:19:43;;;;;;;5.90;2.40;;;;;;;2.29;46.36;102310.84;108057;1288;21991;-60
2023/02/13 05:24:58;;;;;;;6.00;2.30;;;;;;;2.25;46.45;102307.33;107319;1288;1003207;-61
2023/02/13 05:27:24;;;;;;;9.10;2.50;;;;;;;2.22;46.59;102314.80;107365;1288;1002520;-63
2023/02/13 05:29:49;;;;;;;5.60;2.30;;;;;;;2.20;46.58;102314.21;107305;1288;1002480;-61
2023/02/13 05:32:15;;;;;;;8.30;2.20;;;;;;;2.19;46.51;102312.93;108117;1288;21992;-61
2023/02/13 05:34:41;;;;;;;8.90;2.70;;;;;;;2.20;46.66;102311.42;108053;1283;22458;-60
2023/02/13 05:37:06;;;;;;;6.20;2.70;;;;;;;2.21;46.80;102310.11;108054;1288;21957;-61
2023/02/13 05:39:32;;;;;;;8.10;2.70;;;;;;;2.24;46.75;102309.23;108059;1288;22027;-62
2023/02/13 05:41:59;;;;;;;7.10;3.10;;;;;;;2.27;46.71;102311.63;107322;1285;1002629;-61
2023/02/13 05:44:24;;;;;;;5.40;2.90;;;;;;;2.29;46.75;102312.08;107965;1288;21993;-63
2023/02/13 05:46:52;;;;;;;9.00;2.70;;;;;;;2.31;46.80;102313.74;107963;1288;21989;-62
2023/02/13 05:49:18;;;;;;;11.60;3.20;;;;;;;2.32;46.96;102318.16;107918;1288;21995;-62
2023/02/13 05:51:45;;;;;;;10.40;3.40;;;;;;;2.33;46.95;102316.32;107924;1288;22042;-64
2023/02/13 05:54:12;;;;;;;7.30;2.90;;;;;;;2.35;47.01;102311.37;107949;1288;21985;-62
2023/02/13 05:56:37;;;;;;;4.60;2.10;;;;;;;2.39;47.00;102308.94;107945;1288;21999;-64
2023/02/13 05:59:03;;;;;;;4.80;2.50;;;;;;;2.43;47.09;102309.85;107950;1288;21999;-63
2023/02/13 06:01:29;;;;;;;7.60;2.60;;;;;;;2.48;47.16;102313.95;107327;1288;1002865;-63
2023/02/13 06:03:55;;;;;;;7.10;3.50;;;;;;;2.56;47.15;102313.78;107315;1288;1002476;-64
2023/02/13 06:06:23;;;;;;;5.40;2.80;;;;;;;2.61;47.20;102310.61;107274;1288;1002280;-62
2023/02/13 06:08:50;;;;;;;6.80;2.80;;;;;;;2.68;47.44;102310.27;107330;1284;1002403;-64
2023/02/13 06:11:20;;;;;;;8.20;4.10;;;;;;;2.76;47.53;102314.30;108032;1288;21995;-62
2023/02/13 06:13:47;;;;;;;5.40;2.50;;;;;;;2.85;47.55;102317.02;108084;1288;21982;-62
2023/02/13 06:16:17;;;;;;;7.20;3.10;;;;;;;2.94;47.57;102320.08;108016;1288;22056;-64
2023/02/13 06:18:43;;;;;;;5.90;2.50;;;;;;;3.05;47.69;102318.38;107867;1288;22003;-64
2023/02/13 06:21:09;;;;;;;5.40;2.80;;;;;;;3.19;47.94;102319.89;107910;1288;21996;-62
2023/02/13 06:23:35;;;;;;;8.50;3.20;;;;;;;3.35;48.19;102319.79;107875;1288;21997;-63
2023/02/13 06:26:04;;;;;;;5.60;2.80;;;;;;;3.51;48.18;102317.65;107904;1283;21995;-62
2023/02/13 06:28:31;;;;;;;6.90;3.10;;;;;;;3.66;48.12;102322.66;107956;1288;22461;-62
2023/02/13 06:30:57;;;;;;;5.40;2.80;;;;;;;3.77;48.19;102320.94;107936;1288;21997;-62
2023/02/13 06:33:23;;;;;;;8.90;3.10;;;;;;;3.87;48.17;102317.94;107863;1289;22030;-63
2023/02/13 06:35:48;;;;;;;6.60;2.20;;;;;;;3.98;48.15;102317.57;107863;1289;23654;-64
2023/02/13 06:38:17;;;;;;;8.20;4.20;;;;;;;4.11;48.09;102317.27;107231;1289;1002974;-63
2023/02/13 06:40:46;;;;;;;4.20;2.20;;;;;;;4.22;48.17;102317.73;107977;1289;22039;-64
2023/02/13 06:43:12;;;;;;;5.00;2.50;;;;;;;4.31;48.23;102317.29;107879;1282;21994;-64
2023/02/13 06:45:39;;;;;;;6.60;3.00;;;;;;;4.42;48.06;102314.10;107884;1284;21992;-65
2023/02/13 06:48:05;;;;;;;6.00;2.40;;;;;;;4.51;48.15;102315.70;107172;1289;1002749;-62
2023/02/13 06:50:33;;;;;;;8.30;3.40;;;;;;;4.61;48.19;102311.27;107818;1289;21997;-63
2023/02/13 06:52:59;;;;;;;5.70;2.60;;;;;;;4.67;48.49;102312.59;107818;1289;22047;-64
2023/02/13 06:55:26;;;;;;;7.00;2.70;;;;;;;4.79;48.72;102314.31;107840;1289;21992;-62
2023/02/13 06:57:52;;;;;;;7.50;2.90;;;;;;;4.86;48.41;102313.23;107838;1289;22174;-65
2023/02/13 07:00:19;;;;;;;5.40;2.60;;;;;;;4.96;48.49;102314.30;107815;1289;22045;-62
2023/02/13 07:02:46;;;;;;;7.00;3.00;;;;;;;5.06;48.32;102314.90;107899;1289;21995;-62
2023/02/13 07:05:11;;;;;;;5.80;3.00;;;;;;;5.13;48.07;102313.30;107550;1289;369716;-63
2023/02/13 07:07:40;;;;;;;7.00;3.30;;;;;;;5.23;48.07;102314.23;107818;1289;21988;-63
2023/02/13 07:10:11;;;;;;;6.70;2.80;;;;;;;5.32;48.05;102312.31;107842;1289;21993;-63
2023/02/13 07:12:38;;;;;;;8.40;2.40;;;;;;;5.43;48.27;102307.36;107880;1289;21993;-64
2023/02/13 07:15:05;;;;;;;6.40;2.70;;;;;;;5.51;47.88;102304.54;107116;1289;1003214;-65
2023/02/13 07:17:33;;;;;;;9.20;3.80;;;;;;;5.47;47.81;102306.13;107839;1289;21995;-63
2023/02/13 07:19:59;;;;;;;6.30;2.70;;;;;;;5.53;48.02;102299.02;107979;1288;22052;-63
2023/02/13 07:22:27;;;;;;;7.40;3.10;;;;;;;5.61;47.76;102296.02;108060;1288;22034;-62
2023/02/13 07:24:53;;;;;;;7.20;3.40;;;;;;;5.64;47.28;102297.56;107956;1288;22117;-62
2023/02/13 07:27:19;;;;;;;9.30;3.50;;;;;;;5.66;47.44;102293.80;107104;1288;1002382;-63
2023/02/13 07:29:45;;;;;;;6.60;3.30;;;;;;;5.63;47.58;102293.35;107934;1288;22357;-64
2023/02/13 07:32:12;;;;;;;6.30;3.40;;;;;;;5.78;47.87;102294.42;107889;1288;21995;-64
2023/02/13 07:34:39;;;;;;;9.80;3.90;;;;;;;5.86;47.75;102288.81;108036;1288;22024;-63
2023/02/13 07:37:04;;;;;;;7.00;3.40;;;;;;;5.96;47.74;102290.03;107221;1288;1003252;-63
2023/02/13 07:39:31;;;;;;;9.80;4.70;;;;;;;6.06;47.46;102284.84;107846;1285;21998;-65
2023/02/13 07:41:57;;;;;;;8.80;4.50;;;;;;;6.13;47.37;102282.32;107901;1288;22039;-63
2023/02/13 07:44:23;;;;;;;8.10;3.70;;;;;;;6.20;47.20;102280.83;107886;1287;22458;-62
2023/02/13 07:46:48;;;;;;;11.40;3.70;;;;;;;6.28;47.18;102279.70;107938;1288;22013;-63
2023/02/13 07:49:14;;;;;;;7.30;3.60;;;;;;;6.36;47.27;102272.69;107773;1288;21998;-61
2023/02/13 07:51:41;;;;;;;10.40;4.20;;;;;;;6.44;47.15;102271.57;107856;1287;21994;-63
2023/02/13 07:54:06;;;;;;;11.00;4.20;;;;;;;6.51;46.75;102269.04;107991;1286;21998;-61
2023/02/13 07:56:33;;;;;;;9.00;4.30;;;;;;;6.57;46.75;102271.16;107907;1287;22000;-62
2023/02/13 07:58:59;;;;;;;7.10;4.00;;;;;;;6.62;46.84;102269.06;107958;1288;21998;-61
2023/02/13 08:01:25;;;;;;;7.70;4.20;;;;;;;6.65;46.81;102269.32;107931;1288;22458;-62
2023/02/13 08:03:51;;;;;;;7.40;4.10;;;;;;;6.62;46.76;102273.08;107967;1288;22076;-61
2023/02/13 08:06:18;;;;;;;8.30;4.20;;;;;;;6.74;47.05;102270.14;107858;1288;22032;-61
2023/02/13 08:08:43;;;;;;;9.20;4.00;;;;;;;6.81;46.75;102269.34;107874;1285;21976;-61
2023/02/13 08:11:58;;;;;;;7.00;4.10;;;;;;;6.91;46.65;102270.52;107870;1288;21995;-61
2023/02/13 08:14:24;;;;;;;8.40;4.40;;;;;;;6.95;46.61;102268.77;108003;1288;22460;-61
2023/02/13 08:16:52;;;;;;;33.30;14.70;;;;;;;6.98;46.48;102270.77;107891;1288;21995;-61
2023/02/13 08:19:18;;;;;;;13.80;6.70;;;;;;;7.03;46.66;102272.67;107116;1288;1002860;-61
2023/02/13 08:21:44;;;;;;;62.60;23.30;;;;;;;7.11;46.60;102276.25;107870;1287;21995;-61
2023/02/13 08:24:10;;;;;;;27.60;11.90;;;;;;;7.14;46.72;102274.27;107918;1288;22965;-61
2023/02/13 08:26:38;;;;;;;27.40;11.80;;;;;;;7.26;46.16;102268.35;107904;1288;23072;-64
2023/02/13 08:29:04;;;;;;;13.70;6.60;;;;;;;7.32;46.18;102268.35;107850;1278;22036;-65
2023/02/13 08:31:30;;;;;;;13.60;7.30;;;;;;;7.35;45.95;102264.25;107902;1288;21992;-66
2023/02/13 08:33:56;;;;;;;17.20;8.40;;;;;;;7.27;45.81;102257.71;107890;1288;23496;-61
2023/02/13 08:36:23;;;;;;;13.30;7.30;;;;;;;7.35;45.92;102255.71;107966;1288;21993;-65
2023/02/13 08:38:49;;;;;;;18.20;8.60;;;;;;;7.67;46.36;102254.05;107262;1288;1002364;-63
2023/02/13 08:41:17;;;;;;;15.80;8.10;;;;;;;7.91;46.06;102248.81;107986;1288;21995;-66
2023/02/13 08:43:43;;;;;;;22.40;10.70;;;;;;;8.08;45.83;102245.96;107972;1287;22400;-66
2023/02/13 08:46:13;;;;;;;8.20;5.00;;;;;;;8.22;45.74;102238.81;107873;1288;24334;-66
2023/02/13 08:48:38;;;;;;;34.90;15.00;;;;;;;8.33;45.33;102235.98;107946;1288;21998;-61
2023/02/13 08:51:07;;;;;;;30.90;15.10;;;;;;;8.49;45.48;102230.61;108006;1288;22001;-66
2023/02/13 08:53:33;;;;;;;12.90;5.80;;;;;;;8.64;45.41;102229.10;107861;1288;21992;-65
2023/02/13 08:55:59;;;;;;;10.10;6.00;;;;;;;8.83;45.33;102225.71;107179;1288;1002788;-65
2023/02/13 08:58:24;;;;;;;7.20;4.10;;;;;;;8.97;45.08;102222.55;107880;1288;21991;-66
2023/02/13 09:00:50;;;;;;;8.60;4.60;;;;;;;9.06;44.48;102216.12;107864;1288;21984;-66
2023/02/13 09:03:17;;;;;;;9.50;4.20;;;;;;;9.14;44.29;102216.46;107871;1288;21981;-66
2023/02/13 09:05:44;;;;;;;9.20;4.70;;;;;;;9.25;44.19;102218.65;107928;1288;22037;-61
2023/02/13 09:08:12;;;;;;;7.10;4.10;;;;;;;9.36;44.25;102217.31;107870;1288;21992;-66
2023/02/13 09:10:39;;;;;;;15.80;8.80;;;;;;;9.42;44.22;102210.27;107798;1288;23147;-61
2023/02/13 09:13:05;;;;;;;12.60;6.40;;;;;;;9.55;44.50;102206.34;107907;1288;21995;-66
2023/02/13 09:15:31;;;;;;;30.80;18.00;;;;;;;9.64;43.88;102200.74;107856;1288;22015;-66
2023/02/13 09:17:57;;;;;;;14.00;7.50;;;;;;;9.77;43.80;102193.11;107870;1288;23742;-65
2023/02/13 09:20:23;;;;;;;12.50;5.90;;;;;;;9.94;43.41;102182.91;107867;1288;21995;-65
2023/02/13 09:22:48;;;;;;;8.40;5.50;;;;;;;10.04;43.32;102183.46;107892;1288;22162;-66
2023/02/13 09:25:19;;;;;;;9.50;5.30;;;;;;;10.07;42.99;102178.95;107877;1288;21995;-61
2023/02/13 09:28:07;;;;;;;19.00;9.60;;;;;;;10.15;42.96;102174.00;107111;1288;1002957;-61
2023/02/13 09:30:40;;;;;;;18.30;9.30;;;;;;;10.27;42.51;102170.90;107941;1288;22156;-66
2023/02/13 09:33:09;;;;;;;17.50;12.40;;;;;;;10.37;42.50;102167.58;107916;1284;22004;-62
2023/02/13 09:35:35;;;;;;;11.30;6.50;;;;;;;10.51;42.66;102166.59;107921;1288;21995;-65
2023/02/13 09:38:00;;;;;;;9.80;5.30;;;;;;;10.49;41.95;102165.70;107912;1288;22011;-66
2023/02/13 09:40:29;;;;;;;10.10;5.50;;;;;;;10.61;42.06;102161.33;107973;1288;21995;-65
2023/02/13 09:43:09;;;;;;;10.40;6.00;;;;;;;10.69;41.92;102156.17;107963;1288;22001;-66
2023/02/13 09:45:34;;;;;;;12.40;7.10;;;;;;;10.78;41.77;102153.85;107762;1288;21996;-61
2023/02/13 09:48:00;;;;;;;21.10;10.10;;;;;;;10.86;41.86;102149.05;107826;1288;22033;-62
2023/02/13 09:50:30;;;;;;;18.20;9.10;;;;;;;10.93;41.39;102138.45;107184;1288;1003440;-62
2023/02/13 09:52:57;;;;;;;17.20;9.80;;;;;;;11.04;40.96;102132.61;107985;1288;21998;-66
2023/02/13 09:55:36;;;;;;;12.20;6.70;;;;;;;11.18;41.22;102128.42;108171;1288;22467;-61
2023/02/13 09:58:15;;;;;;;15.70;8.80;;;;;;;11.29;41.42;102127.67;107392;1287;1002008;-66
2023/02/13 10:00:42;;;;;;;16.60;9.40;;;;;;;11.43;40.54;102122.06;107868;1288;22007;-62
2023/02/13 10:03:25;;;;;;;12.10;6.30;;;;;;;11.45;39.97;102118.73;108030;1288;23113;-62
2023/02/13 10:05:56;;;;;;;7.50;4.00;;;;;;;11.27;38.52;102122.55;107921;1286;23567;-65
2023/02/13 10:08:35;;;;;;;10.00;5.20;;;;;;;11.36;39.26;102122.66;108035;1288;22057;-65
2023/02/13 10:11:28;;;;;;;7.60;4.10;;;;;;;11.46;39.52;102120.16;108062;1288;21990;-60
2023/02/13 10:14:13;;;;;;;8.70;4.50;;;;;;;11.49;39.72;102119.49;108006;1288;21995;-61
2023/02/13 10:16:48;;;;;;;10.10;4.40;;;;;;;11.51;38.97;102112.66;107975;1287;22648;-62
2023/02/13 10:20:00;;;;;;;8.70;4.40;;;;;;;11.41;38.59;102105.51;107239;1287;1002707;-65
2023/02/13 10:22:33;;;;;;;9.80;3.60;;;;;;;11.47;39.54;102101.19;107279;1295;22007;-62
2023/02/13 10:25:20;;;;;;;7.50;3.80;;;;;;;11.63;39.06;102098.72;107828;1284;21991;-67
2023/02/13 10:27:48;;;;;;;4.80;2.90;;;;;;;11.69;38.38;102098.96;107807;1287;21999;-66
2023/02/13 10:30:27;;;;;;;8.80;4.80;;;;;;;11.82;38.86;102101.73;107893;1288;21995;-62
2023/02/13 10:33:18;;;;;;;9.70;4.40;;;;;;;11.98;38.54;102098.21;107240;1288;1003086;-61
2023/02/13 10:36:08;;;;;;;7.70;4.60;;;;;;;12.02;38.61;102096.67;107932;1288;22469;-61
2023/02/13 10:38:39;;;;;;;9.70;5.00;;;;;;;12.16;38.86;102088.88;107113;1288;1003086;-62
2023/02/13 10:41:13;;;;;;;6.50;3.60;;;;;;;12.19;38.32;102088.38;107980;1288;22031;-62
2023/02/13 10:44:06;;;;;;;10.60;6.00;;;;;;;12.15;37.88;102089.05;107996;1289;22011;-67
2023/02/13 10:46:37;;;;;;;11.70;6.30;;;;;;;12.26;37.29;102088.27;107068;1279;1003152;-65
2023/02/13 10:49:26;;;;;;;9.30;5.20;;;;;;;12.45;38.18;102078.02;107819;1289;21999;-62
2023/02/13 10:52:08;;;;;;;7.20;3.90;;;;;;;12.59;37.67;102072.48;107066;1289;1002632;-62
2023/02/13 10:54:49;;;;;;;7.30;4.20;;;;;;;12.46;37.26;102068.52;107894;1289;22002;-61
2023/02/13 10:57:18;;;;;;;7.70;5.00;;;;;;;12.54;37.88;102055.73;107851;1288;21992;-65
2023/02/13 10:59:59;;;;;;;9.00;5.00;;;;;;;12.60;38.00;102048.36;108041;1288;21996;-61
2023/02/13 11:02:31;;;;;;;9.20;4.90;;;;;;;12.68;36.92;102047.52;108023;1287;22000;-61
2023/02/13 11:05:09;;;;;;;8.50;4.70;;;;;;;12.83;37.21;102043.02;108139;1288;23042;-65
2023/02/13 11:07:35;;;;;;;6.90;4.40;;;;;;;12.88;36.76;102038.82;107935;1288;22031;-66
2023/02/13 11:10:04;;;;;;;6.20;4.40;;;;;;;12.85;36.28;102036.69;107866;1288;22002;-66
2023/02/13 11:12:36;;;;;;;8.10;4.50;;;;;;;12.77;36.03;102035.06;107870;1289;22003;-62
2023/02/13 11:15:05;;;;;;;7.10;4.20;;;;;;;12.66;34.63;102029.89;107896;1289;22004;-62
2023/02/13 11:17:35;;;;;;;6.70;4.30;;;;;;;12.58;34.97;102026.15;108076;1288;22506;-63
2023/02/13 11:20:06;;;;;;;7.90;4.20;;;;;;;12.49;35.64;102025.40;107884;1288;22098;-67
2023/02/13 11:22:34;;;;;;;6.00;3.70;;;;;;;12.24;35.46;102021.36;108051;1288;23698;-66
2023/02/13 11:25:02;;;;;;;8.00;5.00;;;;;;;12.08;35.59;102020.55;107912;1288;21992;-64
2023/02/13 11:27:34;;;;;;;7.20;4.10;;;;;;;12.00;35.88;102021.36;107261;1289;1002317;-62
2023/02/13 11:30:07;;;;;;;8.00;4.40;;;;;;;11.90;35.12;102020.20;107873;1289;22011;-66
2023/02/13 11:32:33;;;;;;;10.90;4.20;;;;;;;11.86;34.89;102015.23;107856;1289;21999;-66
2023/02/13 11:35:26;;;;;;;6.00;3.90;;;;;;;11.82;35.31;102014.50;107152;1288;1002501;-63
2023/02/13 11:38:09;;;;;;;10.10;4.80;;;;;;;11.67;35.73;102004.52;107994;1288;22009;-62
2023/02/13 11:40:35;;;;;;;9.90;4.10;;;;;;;11.72;35.72;101996.83;107860;1288;22017;-67
2023/02/13 11:43:01;;;;;;;8.90;4.20;;;;;;;11.87;36.19;101994.31;108084;1288;23743;-67
2023/02/13 11:45:27;;;;;;;6.50;4.00;;;;;;;11.98;35.82;101991.08;108018;1288;21990;-63
2023/02/13 11:47:54;;;;;;;11.20;3.90;;;;;;;12.01;35.93;101990.39;107821;1289;22006;-64
2023/02/13 11:50:28;;;;;;;6.60;4.60;;;;;;;12.01;36.49;101983.73;107065;1288;1003565;-67
2023/02/13 11:53:22;;;;;;;8.60;5.20;;;;;;;11.94;36.20;101976.61;107869;1289;21999;-62
2023/02/13 11:56:13;;;;;;;6.60;4.50;;;;;;;11.79;36.20;101974.90;108076;1285;22263;-66
2023/02/13 11:58:40;;;;;;;7.70;4.80;;;;;;;11.59;35.99;101972.80;107939;1288;23621;-66
2023/02/13 12:01:27;;;;;;;7.80;4.60;;;;;;;11.32;35.50;101972.36;107903;1288;21992;-65
2023/02/13 12:04:05;;;;;;;7.40;3.90;;;;;;;11.35;36.02;101968.36;107948;1288;22023;-66
2023/02/13 12:06:38;;;;;;;6.90;3.90;;;;;;;11.21;34.83;101965.76;107245;1288;1002650;-62
2023/02/13 12:09:11;;;;;;;6.80;4.30;;;;;;;11.22;34.65;101967.00;107791;1288;21998;-62
2023/02/13 12:11:43;;;;;;;8.00;4.40;;;;;;;11.45;35.64;101962.30;107805;1288;24087;-63